createdAt,value
2023-05-06T00:03:55.671Z,54.70
2023-05-06T00:08:58.464Z,54.82
2023-05-06T00:14:01.018Z,54.88
2023-05-06T00:19:04.037Z,54.81
2023-05-06T00:24:07.056Z,54.62
2023-05-06T00:29:09.720Z,54.71
2023-05-06T00:34:12.271Z,54.74
2023-05-06T00:39:14.867Z,54.74
2023-05-06T00:44:17.768Z,54.77
2023-05-06T00:49:21.072Z,54.78
2023-05-06T00:54:26.040Z,54.70
2023-05-06T00:59:28.735Z,54.81
2023-05-06T01:04:31.858Z,54.83
2023-05-06T01:09:37.483Z,54.84
2023-05-06T01:15:01.341Z,54.84
2023-05-06T01:20:06.236Z,54.73
2023-05-06T01:25:19.124Z,54.71
2023-05-06T01:30:25.006Z,54.77
2023-05-06T01:35:44.154Z,54.65
2023-05-06T01:40:54.228Z,54.69
2023-05-06T01:45:57.810Z,54.67
2023-05-06T01:51:00.468Z,54.70
2023-05-06T01:56:03.345Z,54.68
2023-05-06T02:01:05.905Z,54.65
2023-05-06T02:06:08.648Z,54.45
2023-05-06T02:11:11.154Z,54.53
2023-05-06T02:16:13.670Z,54.52
2023-05-06T02:21:16.198Z,54.54
2023-05-06T02:26:18.737Z,54.64
2023-05-06T02:31:21.440Z,54.82
2023-05-06T02:36:24.035Z,54.96
2023-05-06T02:41:26.619Z,55.22
2023-05-06T02:46:29.132Z,55.37
2023-05-06T02:51:31.816Z,55.50
2023-05-06T02:56:35.268Z,55.56
2023-05-06T03:01:37.887Z,55.85
2023-05-06T03:06:40.770Z,55.91
2023-05-06T03:11:43.951Z,55.89
2023-05-06T03:16:46.505Z,55.89
2023-05-06T03:21:49.393Z,55.87
2023-05-06T03:26:53.115Z,55.94
2023-05-06T03:36:59.198Z,55.92
2023-05-06T03:42:02.300Z,55.97
2023-05-06T03:47:04.857Z,55.78
2023-05-06T03:52:07.435Z,55.71
2023-05-06T03:57:10.198Z,55.60
2023-05-06T04:02:12.891Z,55.37
2023-05-06T04:07:15.664Z,54.93
2023-05-06T04:12:18.223Z,54.37
2023-05-06T04:17:20.796Z,54.13
2023-05-06T04:22:23.654Z,53.77
2023-05-06T04:27:29.755Z,53.62
2023-05-06T04:32:34.120Z,53.46
2023-05-06T04:37:36.766Z,53.04
2023-05-06T04:42:39.564Z,52.90
2023-05-06T04:47:43.313Z,52.68
2023-05-06T04:52:45.914Z,52.56
2023-05-06T04:57:48.586Z,52.46
2023-05-06T05:02:51.481Z,52.38
2023-05-06T05:07:55.580Z,52.17
2023-05-06T05:12:58.317Z,51.98
2023-05-06T05:18:00.973Z,51.48
2023-05-06T05:23:03.780Z,50.51
2023-05-06T05:28:06.265Z,49.67
2023-05-06T05:33:09.233Z,48.30
2023-05-06T05:38:13.935Z,47.20
2023-05-06T05:43:16.559Z,46.51
2023-05-06T05:48:19.091Z,46.02
2023-05-06T05:53:21.634Z,45.51
2023-05-06T05:58:24.139Z,44.58
2023-05-06T06:03:27.557Z,43.57
2023-05-06T06:08:31.889Z,42.17
2023-05-06T06:13:34.441Z,42.13
2023-05-06T06:18:37.012Z,41.53
2023-05-06T06:23:39.708Z,40.42
2023-05-06T06:28:44.432Z,39.24
2023-05-06T06:33:46.963Z,38.31
2023-05-06T06:38:49.497Z,37.62
2023-05-06T06:43:52.085Z,36.51
2023-05-06T06:48:55.134Z,35.28
2023-05-06T06:53:57.748Z,35.38
2023-05-06T06:59:00.529Z,35.65
2023-05-06T07:04:06.559Z,35.37
2023-05-06T07:09:10.266Z,35.22
2023-05-06T07:14:12.860Z,35.12
2023-05-06T07:19:15.439Z,35.40
2023-05-06T07:24:18.032Z,34.78
2023-05-06T07:29:20.632Z,34.23
2023-05-06T07:34:23.229Z,33.20
2023-05-06T07:39:25.885Z,32.66
2023-05-06T07:44:28.526Z,32.61
2023-05-06T07:49:34.085Z,32.87
2023-05-06T07:54:38.236Z,32.89
2023-05-06T07:59:40.791Z,33.01
2023-05-06T08:04:43.619Z,33.26
2023-05-06T08:09:46.535Z,33.47
2023-05-06T08:14:49.146Z,33.68
2023-05-06T08:19:51.776Z,33.79
2023-05-06T08:24:55.084Z,34.03
2023-05-06T08:29:58.727Z,34.38
2023-05-06T08:35:02.317Z,34.56
2023-05-06T08:40:06.508Z,34.40
2023-05-06T08:45:11.488Z,34.36
2023-05-06T08:50:14.274Z,34.39
2023-05-06T08:55:18.833Z,34.75
2023-05-06T09:00:22.058Z,34.80
2023-05-06T09:05:24.639Z,34.81
2023-05-06T09:10:32.945Z,35.11
2023-05-06T09:15:43.166Z,34.96
2023-05-06T09:20:48.452Z,35.21
2023-05-06T09:25:51.287Z,35.33
2023-05-06T09:30:54.300Z,35.66
2023-05-06T09:36:01.722Z,35.65
2023-05-06T09:41:05.067Z,35.96
2023-05-06T09:46:08.938Z,36.28
2023-05-06T09:51:11.594Z,36.25
2023-05-06T09:56:15.561Z,35.59
2023-05-06T10:01:32.705Z,35.75
2023-05-06T10:06:40.156Z,35.69
2023-05-06T10:11:45.514Z,35.66
2023-05-06T10:16:49.047Z,35.81
2023-05-06T10:22:05.598Z,35.77
2023-05-06T10:27:12.091Z,35.81
2023-05-06T10:32:17.309Z,36.09
2023-05-06T10:37:25.803Z,35.98
2023-05-06T10:42:33.859Z,35.91
2023-05-06T10:47:58.193Z,36.16
2023-05-06T10:53:00.814Z,36.28
2023-05-06T10:58:18.817Z,36.14
2023-05-06T11:03:24.060Z,36.10
2023-05-06T11:08:27.358Z,35.76
2023-05-06T11:13:35.053Z,35.62
2023-05-06T11:18:41.783Z,35.72
2023-05-06T11:23:52.012Z,35.47
2023-05-06T11:28:55.758Z,35.81
2023-05-06T11:34:01.721Z,36.21
2023-05-06T11:39:10.496Z,36.16
2023-05-06T11:44:24.551Z,36.09
2023-05-06T11:49:28.547Z,35.18
2023-05-06T11:54:39.036Z,35.41
2023-05-06T11:59:41.869Z,35.93
2023-05-06T12:04:46.853Z,36.61
2023-05-06T12:09:50.444Z,36.67
2023-05-06T12:14:54.022Z,36.31
2023-05-06T12:19:56.663Z,36.08
2023-05-06T12:25:15.435Z,36.38
2023-05-06T12:30:29.793Z,36.59
2023-05-06T12:35:32.836Z,36.57
2023-05-06T12:40:36.120Z,36.68
2023-05-06T12:45:39.883Z,36.64
2023-05-06T12:50:44.509Z,37.17
2023-05-06T12:55:47.061Z,37.32
2023-05-06T13:00:49.636Z,37.60
2023-05-06T13:05:52.186Z,37.45
2023-05-06T13:10:54.759Z,37.12
2023-05-06T13:15:57.470Z,36.56
2023-05-06T13:21:00.582Z,37.09
2023-05-06T13:26:06.225Z,37.18
2023-05-06T13:31:09.079Z,37.38
2023-05-06T13:36:11.833Z,36.98
2023-05-06T13:41:14.979Z,36.85
2023-05-06T13:46:17.661Z,36.54
2023-05-06T13:51:20.383Z,36.03
2023-05-06T13:56:22.956Z,36.32
2023-05-06T14:01:25.666Z,36.18
2023-05-06T14:06:29.312Z,36.31
2023-05-06T14:11:31.964Z,36.57
2023-05-06T14:16:34.565Z,36.67
2023-05-06T14:21:37.157Z,37.06
2023-05-06T14:26:40.415Z,37.08
2023-05-06T14:31:43.019Z,37.38
2023-05-06T14:36:45.632Z,37.48
2023-05-06T14:41:50.694Z,37.78
2023-05-06T14:46:53.267Z,37.95
2023-05-06T14:51:55.930Z,38.01
2023-05-06T14:57:01.271Z,38.24
2023-05-06T15:02:07.221Z,38.13
2023-05-06T15:07:10.733Z,38.29
2023-05-06T15:12:14.417Z,38.33
2023-05-06T15:17:17.002Z,38.17
2023-05-06T15:22:19.534Z,37.75
2023-05-06T15:27:22.109Z,37.19
2023-05-06T15:32:24.858Z,37.57
2023-05-06T15:37:27.864Z,37.70
2023-05-06T15:42:32.534Z,37.62
2023-05-06T15:47:35.270Z,37.12
2023-05-06T15:52:37.937Z,36.96
2023-05-06T15:57:42.984Z,37.27
2023-05-06T16:02:45.609Z,37.60
2023-05-06T16:07:48.491Z,37.81
2023-05-06T16:12:51.622Z,37.61
2023-05-06T16:17:54.329Z,37.80
2023-05-06T16:22:56.937Z,37.98
2023-05-06T16:27:59.747Z,37.94
2023-05-06T16:33:03.878Z,38.08
2023-05-06T16:38:06.682Z,38.21
2023-05-06T16:43:09.786Z,38.20
2023-05-06T16:48:16.933Z,38.58
2023-05-06T16:53:19.715Z,38.72
2023-05-06T16:58:22.376Z,38.68
2023-05-06T17:03:25.129Z,38.80
2023-05-06T17:08:27.878Z,39.10
2023-05-06T17:13:31.524Z,39.44
2023-05-06T17:18:34.276Z,39.60
2023-05-06T17:23:36.822Z,39.88
2023-05-06T17:28:39.354Z,40.26
2023-05-06T17:33:41.880Z,40.64
2023-05-06T17:38:44.468Z,41.00
2023-05-06T17:43:47.463Z,41.25
2023-05-06T17:48:50.141Z,41.49
2023-05-06T17:53:53.237Z,41.78
2023-05-06T17:58:56.468Z,42.12
2023-05-06T18:04:00.168Z,42.47
2023-05-06T18:09:03.062Z,42.72
2023-05-06T18:14:06.309Z,43.12
2023-05-06T18:19:08.855Z,43.20
2023-05-06T18:24:16.527Z,43.58
2023-05-06T18:29:19.729Z,43.91
2023-05-06T18:34:22.351Z,44.32
2023-05-06T18:39:25.281Z,44.60
2023-05-06T18:44:27.908Z,44.96
2023-05-06T18:49:31.102Z,45.28
2023-05-06T18:54:34.241Z,45.58
2023-05-06T18:59:36.733Z,45.81
2023-05-06T19:04:39.430Z,46.13
2023-05-06T19:09:42.942Z,46.26
2023-05-06T19:14:45.468Z,46.32
2023-05-06T19:19:49.030Z,46.52
2023-05-06T19:24:51.993Z,46.50
2023-05-06T19:29:55.128Z,46.56
2023-05-06T19:34:59.487Z,46.48
2023-05-06T19:40:04.231Z,46.57
2023-05-06T19:45:11.979Z,46.76
2023-05-06T19:50:15.106Z,46.77
2023-05-06T19:55:18.408Z,46.83
2023-05-06T20:00:22.014Z,46.82
2023-05-06T20:05:29.470Z,46.94
2023-05-06T20:10:33.539Z,47.06
2023-05-06T20:15:37.689Z,47.34
2023-05-06T20:20:40.922Z,47.80
2023-05-06T20:25:43.547Z,48.00
2023-05-06T20:30:47.913Z,48.80
2023-05-06T20:35:50.851Z,49.01
2023-05-06T20:40:53.444Z,49.27
2023-05-06T20:45:56.237Z,49.62
2023-05-06T20:50:58.895Z,49.76
2023-05-06T20:56:02.154Z,50.01
2023-05-06T21:01:05.099Z,50.28
2023-05-06T21:06:07.977Z,50.55
2023-05-06T21:11:10.764Z,50.73
2023-05-06T21:16:13.469Z,50.85
2023-05-06T21:21:16.007Z,51.00
2023-05-06T21:26:18.553Z,51.17
2023-05-06T21:31:23.368Z,51.42
2023-05-06T21:36:27.030Z,51.42
2023-05-06T21:41:29.662Z,51.31
2023-05-06T21:46:33.614Z,51.40
2023-05-06T21:51:36.224Z,51.57
2023-05-06T21:56:38.891Z,51.53
2023-05-06T22:01:41.640Z,51.68
2023-05-06T22:06:44.186Z,51.77
2023-05-06T22:11:47.074Z,51.92
2023-05-06T22:16:50.151Z,52.05
2023-05-06T22:21:53.744Z,52.30
2023-05-06T22:26:56.447Z,52.03
2023-05-06T22:31:59.375Z,51.86
2023-05-06T22:37:09.506Z,52.04
2023-05-06T22:42:12.045Z,52.13
2023-05-06T22:47:16.342Z,51.94
2023-05-06T22:52:20.118Z,52.23
2023-05-06T22:57:25.745Z,52.50
2023-05-06T23:02:28.564Z,52.87
2023-05-06T23:07:31.257Z,53.39
2023-05-06T23:12:34.547Z,53.60
2023-05-06T23:17:37.749Z,54.07
2023-05-06T23:22:40.443Z,54.12
2023-05-06T23:27:43.378Z,54.46
2023-05-06T23:32:46.208Z,54.68
2023-05-06T23:37:48.783Z,54.89
2023-05-06T23:42:51.365Z,55.26
2023-05-06T23:47:54.384Z,55.56
2023-05-06T23:52:57.148Z,56.02
2023-05-06T23:58:00.390Z,56.21
